sensor_id;sensor_type;location;lat;lon;timestamp;temperature;humidity
27226;DHT22;14732;51.074;3.788;2023-06-10T00:01:29;23.00;99.90
27226;DHT22;14732;51.074;3.788;2023-06-10T00:03:56;23.00;99.90
27226;DHT22;14732;51.074;3.788;2023-06-10T00:06:22;22.90;99.90
27226;DHT22;14732;51.074;3.788;2023-06-10T00:08:50;22.90;99.90
27226;DHT22;14732;51.074;3.788;2023-06-10T00:11:16;22.80;99.90
27226;DHT22;14732;51.074;3.788;2023-06-10T00:13:41;22.80;99.90
27226;DHT22;14732;51.074;3.788;2023-06-10T00:16:07;22.80;99.90
27226;DHT22;14732;51.074;3.788;2023-06-10T00:18:33;22.70;99.90
27226;DHT22;14732;51.074;3.788;2023-06-10T00:21:02;22.70;99.90
27226;DHT22;14732;51.074;3.788;2023-06-10T00:23:31;22.70;99.90
27226;DHT22;14732;51.074;3.788;2023-06-10T00:26:00;22.70;99.90
27226;DHT22;14732;51.074;3.788;2023-06-10T00:28:26;22.60;99.90
27226;DHT22;14732;51.074;3.788;2023-06-10T00:30:51;22.60;99.90
27226;DHT22;14732;51.074;3.788;2023-06-10T00:33:17;22.50;99.90
27226;DHT22;14732;51.074;3.788;2023-06-10T00:35:43;22.50;99.90
27226;DHT22;14732;51.074;3.788;2023-06-10T00:38:09;22.50;99.90
27226;DHT22;14732;51.074;3.788;2023-06-10T00:40:41;22.40;99.90
27226;DHT22;14732;51.074;3.788;2023-06-10T00:43:08;22.40;99.90
27226;DHT22;14732;51.074;3.788;2023-06-10T00:45:33;22.30;99.90
27226;DHT22;14732;51.074;3.788;2023-06-10T00:48:00;22.30;99.90
27226;DHT22;14732;51.074;3.788;2023-06-10T00:50:26;22.30;99.90
27226;DHT22;14732;51.074;3.788;2023-06-10T00:52:54;22.20;99.90
27226;DHT22;14732;51.074;3.788;2023-06-10T00:55:23;22.10;99.90
27226;DHT22;14732;51.074;3.788;2023-06-10T00:57:50;22.10;99.90
27226;DHT22;14732;51.074;3.788;2023-06-10T01:00:17;22.10;99.90
27226;DHT22;14732;51.074;3.788;2023-06-10T01:02:44;22.10;99.90
27226;DHT22;14732;51.074;3.788;2023-06-10T01:05:11;22.00;99.90
27226;DHT22;14732;51.074;3.788;2023-06-10T01:08:07;22.00;99.90
27226;DHT22;14732;51.074;3.788;2023-06-10T01:10:55;21.90;99.90
27226;DHT22;14732;51.074;3.788;2023-06-10T01:13:28;21.90;99.90
27226;DHT22;14732;51.074;3.788;2023-06-10T01:15:58;21.90;99.90
27226;DHT22;14732;51.074;3.788;2023-06-10T01:18:30;21.90;99.90
27226;DHT22;14732;51.074;3.788;2023-06-10T01:20:56;21.80;99.90
27226;DHT22;14732;51.074;3.788;2023-06-10T01:23:23;21.80;99.90
27226;DHT22;14732;51.074;3.788;2023-06-10T01:26:05;21.80;99.90
27226;DHT22;14732;51.074;3.788;2023-06-10T01:28:49;21.70;99.90
27226;DHT22;14732;51.074;3.788;2023-06-10T01:31:51;21.70;99.90
27226;DHT22;14732;51.074;3.788;2023-06-10T01:34:21;21.70;99.90
27226;DHT22;14732;51.074;3.788;2023-06-10T01:36:49;21.60;99.90
27226;DHT22;14732;51.074;3.788;2023-06-10T01:39:18;21.60;99.90
27226;DHT22;14732;51.074;3.788;2023-06-10T01:41:47;21.50;99.90
27226;DHT22;14732;51.074;3.788;2023-06-10T01:44:20;21.50;99.90
27226;DHT22;14732;51.074;3.788;2023-06-10T01:46:46;21.50;99.90
27226;DHT22;14732;51.074;3.788;2023-06-10T01:49:12;21.50;99.90
27226;DHT22;14732;51.074;3.788;2023-06-10T01:51:39;21.50;99.90
27226;DHT22;14732;51.074;3.788;2023-06-10T01:54:05;21.50;99.90
27226;DHT22;14732;51.074;3.788;2023-06-10T01:56:31;21.40;99.90
27226;DHT22;14732;51.074;3.788;2023-06-10T01:58:57;21.40;99.90
27226;DHT22;14732;51.074;3.788;2023-06-10T02:01:28;21.40;99.90
27226;DHT22;14732;51.074;3.788;2023-06-10T02:03:54;21.30;99.90
27226;DHT22;14732;51.074;3.788;2023-06-10T02:06:19;21.30;99.90
27226;DHT22;14732;51.074;3.788;2023-06-10T02:08:45;21.20;99.90
27226;DHT22;14732;51.074;3.788;2023-06-10T02:11:11;21.20;99.90
27226;DHT22;14732;51.074;3.788;2023-06-10T02:13:38;21.20;99.90
27226;DHT22;14732;51.074;3.788;2023-06-10T02:16:04;21.20;99.90
27226;DHT22;14732;51.074;3.788;2023-06-10T02:18:31;21.10;99.90
27226;DHT22;14732;51.074;3.788;2023-06-10T02:20:56;21.10;99.90
27226;DHT22;14732;51.074;3.788;2023-06-10T02:23:22;21.10;99.90
27226;DHT22;14732;51.074;3.788;2023-06-10T02:25:48;21.00;99.90
27226;DHT22;14732;51.074;3.788;2023-06-10T02:28:14;21.00;99.90
27226;DHT22;14732;51.074;3.788;2023-06-10T02:30:41;21.00;99.90
27226;DHT22;14732;51.074;3.788;2023-06-10T02:33:07;20.90;99.90
27226;DHT22;14732;51.074;3.788;2023-06-10T02:35:36;20.90;99.90
27226;DHT22;14732;51.074;3.788;2023-06-10T02:38:02;20.90;99.90
27226;DHT22;14732;51.074;3.788;2023-06-10T02:40:28;20.80;99.90
27226;DHT22;14732;51.074;3.788;2023-06-10T02:42:53;20.80;99.90
27226;DHT22;14732;51.074;3.788;2023-06-10T02:45:19;20.80;99.90
27226;DHT22;14732;51.074;3.788;2023-06-10T02:47:45;20.80;99.90
27226;DHT22;14732;51.074;3.788;2023-06-10T02:50:11;20.80;99.90
27226;DHT22;14732;51.074;3.788;2023-06-10T02:52:37;20.80;99.90
27226;DHT22;14732;51.074;3.788;2023-06-10T02:55:03;20.70;99.90
27226;DHT22;14732;51.074;3.788;2023-06-10T02:57:29;20.70;99.90
27226;DHT22;14732;51.074;3.788;2023-06-10T02:59:54;20.60;99.90
27226;DHT22;14732;51.074;3.788;2023-06-10T03:02:20;20.60;99.90
27226;DHT22;14732;51.074;3.788;2023-06-10T03:04:48;20.50;99.90
27226;DHT22;14732;51.074;3.788;2023-06-10T03:07:15;20.50;99.90
27226;DHT22;14732;51.074;3.788;2023-06-10T03:09:41;20.50;99.90
27226;DHT22;14732;51.074;3.788;2023-06-10T03:12:08;20.50;99.90
27226;DHT22;14732;51.074;3.788;2023-06-10T03:14:34;20.50;99.90
27226;DHT22;14732;51.074;3.788;2023-06-10T03:17:00;20.50;99.90
27226;DHT22;14732;51.074;3.788;2023-06-10T03:19:26;20.40;99.90
27226;DHT22;14732;51.074;3.788;2023-06-10T03:22:08;20.40;99.90
27226;DHT22;14732;51.074;3.788;2023-06-10T03:24:34;20.40;99.90
27226;DHT22;14732;51.074;3.788;2023-06-10T03:27:02;20.30;99.90
27226;DHT22;14732;51.074;3.788;2023-06-10T03:29:30;20.30;99.90
27226;DHT22;14732;51.074;3.788;2023-06-10T03:31:56;20.30;99.90
27226;DHT22;14732;51.074;3.788;2023-06-10T03:34:22;20.30;99.90
27226;DHT22;14732;51.074;3.788;2023-06-10T03:36:49;20.30;99.90
27226;DHT22;14732;51.074;3.788;2023-06-10T03:39:15;20.20;99.90
27226;DHT22;14732;51.074;3.788;2023-06-10T03:41:41;20.20;99.90
27226;DHT22;14732;51.074;3.788;2023-06-10T03:44:08;20.20;99.90
27226;DHT22;14732;51.074;3.788;2023-06-10T03:46:34;20.20;99.90
27226;DHT22;14732;51.074;3.788;2023-06-10T03:49:00;20.20;99.90
27226;DHT22;14732;51.074;3.788;2023-06-10T03:51:27;20.20;99.90
27226;DHT22;14732;51.074;3.788;2023-06-10T03:53:57;20.20;99.90
27226;DHT22;14732;51.074;3.788;2023-06-10T03:56:24;20.20;99.90
27226;DHT22;14732;51.074;3.788;2023-06-10T03:58:53;20.10;99.90
27226;DHT22;14732;51.074;3.788;2023-06-10T04:01:21;20.20;99.90
27226;DHT22;14732;51.074;3.788;2023-06-10T04:03:49;20.10;99.90
27226;DHT22;14732;51.074;3.788;2023-06-10T04:06:16;20.20;99.90
27226;DHT22;14732;51.074;3.788;2023-06-10T04:08:43;20.20;99.90
27226;DHT22;14732;51.074;3.788;2023-06-10T04:11:09;20.20;99.90
27226;DHT22;14732;51.074;3.788;2023-06-10T04:13:34;20.20;99.90
27226;DHT22;14732;51.074;3.788;2023-06-10T04:16:01;20.20;99.90
27226;DHT22;14732;51.074;3.788;2023-06-10T04:18:30;20.20;99.90
27226;DHT22;14732;51.074;3.788;2023-06-10T04:20:58;20.20;99.90
27226;DHT22;14732;51.074;3.788;2023-06-10T04:23:25;20.30;99.90
27226;DHT22;14732;51.074;3.788;2023-06-10T04:25:51;20.30;99.90
27226;DHT22;14732;51.074;3.788;2023-06-10T04:28:17;20.30;99.90
27226;DHT22;14732;51.074;3.788;2023-06-10T04:30:44;20.40;99.90
27226;DHT22;14732;51.074;3.788;2023-06-10T04:33:11;20.40;99.90
27226;DHT22;14732;51.074;3.788;2023-06-10T04:35:37;20.40;99.90
27226;DHT22;14732;51.074;3.788;2023-06-10T04:38:02;20.50;99.90
27226;DHT22;14732;51.074;3.788;2023-06-10T04:40:29;20.50;99.90
27226;DHT22;14732;51.074;3.788;2023-06-10T04:42:57;20.60;99.90
27226;DHT22;14732;51.074;3.788;2023-06-10T04:45:23;20.60;99.90
27226;DHT22;14732;51.074;3.788;2023-06-10T04:47:49;20.70;99.90
27226;DHT22;14732;51.074;3.788;2023-06-10T04:50:14;20.80;99.90
27226;DHT22;14732;51.074;3.788;2023-06-10T04:52:41;20.80;99.90
27226;DHT22;14732;51.074;3.788;2023-06-10T04:55:07;20.90;99.90
27226;DHT22;14732;51.074;3.788;2023-06-10T04:57:33;21.10;99.90
27226;DHT22;14732;51.074;3.788;2023-06-10T04:59:58;21.70;99.90
27226;DHT22;14732;51.074;3.788;2023-06-10T05:02:24;22.70;99.90
27226;DHT22;14732;51.074;3.788;2023-06-10T05:04:50;23.90;99.90
27226;DHT22;14732;51.074;3.788;2023-06-10T05:07:15;25.10;99.90
27226;DHT22;14732;51.074;3.788;2023-06-10T05:09:41;26.20;99.90
27226;DHT22;14732;51.074;3.788;2023-06-10T05:12:11;27.20;99.90
27226;DHT22;14732;51.074;3.788;2023-06-10T05:14:38;28.10;99.90
27226;DHT22;14732;51.074;3.788;2023-06-10T05:17:05;28.80;99.90
27226;DHT22;14732;51.074;3.788;2023-06-10T05:19:31;29.50;99.90
27226;DHT22;14732;51.074;3.788;2023-06-10T05:21:57;30.20;99.90
27226;DHT22;14732;51.074;3.788;2023-06-10T05:24:23;30.90;99.90
27226;DHT22;14732;51.074;3.788;2023-06-10T05:26:49;31.40;99.90
27226;DHT22;14732;51.074;3.788;2023-06-10T05:29:15;32.10;98.70
27226;DHT22;14732;51.074;3.788;2023-06-10T05:31:41;32.70;96.60
27226;DHT22;14732;51.074;3.788;2023-06-10T05:34:07;33.40;96.00
27226;DHT22;14732;51.074;3.788;2023-06-10T05:36:33;34.10;94.90
27226;DHT22;14732;51.074;3.788;2023-06-10T05:38:58;34.80;93.60
27226;DHT22;14732;51.074;3.788;2023-06-10T05:41:24;35.30;91.30
27226;DHT22;14732;51.074;3.788;2023-06-10T05:43:50;35.30;87.70
27226;DHT22;14732;51.074;3.788;2023-06-10T05:46:16;35.60;86.10
27226;DHT22;14732;51.074;3.788;2023-06-10T05:48:42;35.80;83.80
27226;DHT22;14732;51.074;3.788;2023-06-10T05:51:08;35.70;83.20
27226;DHT22;14732;51.074;3.788;2023-06-10T05:53:33;36.20;84.70
27226;DHT22;14732;51.074;3.788;2023-06-10T05:55:59;36.90;79.60
27226;DHT22;14732;51.074;3.788;2023-06-10T05:58:25;37.20;77.10
27226;DHT22;14732;51.074;3.788;2023-06-10T06:00:50;37.30;75.70
27226;DHT22;14732;51.074;3.788;2023-06-10T06:03:17;37.50;74.00
27226;DHT22;14732;51.074;3.788;2023-06-10T06:05:44;37.90;74.10
27226;DHT22;14732;51.074;3.788;2023-06-10T06:08:11;38.30;73.00
27226;DHT22;14732;51.074;3.788;2023-06-10T06:10:39;37.90;70.90
27226;DHT22;14732;51.074;3.788;2023-06-10T06:13:04;38.30;71.50
27226;DHT22;14732;51.074;3.788;2023-06-10T06:15:30;37.40;69.30
27226;DHT22;14732;51.074;3.788;2023-06-10T06:17:56;37.70;68.90
27226;DHT22;14732;51.074;3.788;2023-06-10T06:20:24;37.50;70.90
27226;DHT22;14732;51.074;3.788;2023-06-10T06:22:50;38.30;68.70
27226;DHT22;14732;51.074;3.788;2023-06-10T06:25:17;39.10;67.60
27226;DHT22;14732;51.074;3.788;2023-06-10T06:27:43;39.90;66.50
27226;DHT22;14732;51.074;3.788;2023-06-10T06:30:09;40.40;64.40
27226;DHT22;14732;51.074;3.788;2023-06-10T06:32:36;40.30;61.60
27226;DHT22;14732;51.074;3.788;2023-06-10T06:35:02;40.20;62.40
27226;DHT22;14732;51.074;3.788;2023-06-10T06:37:28;39.40;63.20
27226;DHT22;14732;51.074;3.788;2023-06-10T06:39:54;39.70;61.50
27226;DHT22;14732;51.074;3.788;2023-06-10T06:42:20;39.50;62.70
27226;DHT22;14732;51.074;3.788;2023-06-10T06:44:46;39.40;61.30
27226;DHT22;14732;51.074;3.788;2023-06-10T06:47:13;38.80;63.00
27226;DHT22;14732;51.074;3.788;2023-06-10T06:49:40;37.60;63.50
27226;DHT22;14732;51.074;3.788;2023-06-10T06:52:06;36.50;65.60
27226;DHT22;14732;51.074;3.788;2023-06-10T06:54:32;35.60;67.20
27226;DHT22;14732;51.074;3.788;2023-06-10T06:56:59;35.90;66.30
27226;DHT22;14732;51.074;3.788;2023-06-10T06:59:26;35.00;68.00
27226;DHT22;14732;51.074;3.788;2023-06-10T07:01:53;34.90;68.90
27226;DHT22;14732;51.074;3.788;2023-06-10T07:04:22;34.50;69.20
27226;DHT22;14732;51.074;3.788;2023-06-10T07:06:48;33.90;69.90
27226;DHT22;14732;51.074;3.788;2023-06-10T07:09:14;34.00;70.90
27226;DHT22;14732;51.074;3.788;2023-06-10T07:11:40;34.00;70.60
27226;DHT22;14732;51.074;3.788;2023-06-10T07:14:07;34.00;71.20
27226;DHT22;14732;51.074;3.788;2023-06-10T07:16:32;33.60;72.00
27226;DHT22;14732;51.074;3.788;2023-06-10T07:18:58;32.60;74.50
27226;DHT22;14732;51.074;3.788;2023-06-10T07:21:24;31.50;75.10
27226;DHT22;14732;51.074;3.788;2023-06-10T07:23:51;30.80;77.80
27226;DHT22;14732;51.074;3.788;2023-06-10T07:26:23;30.80;78.50
27226;DHT22;14732;51.074;3.788;2023-06-10T07:28:49;31.10;78.90
27226;DHT22;14732;51.074;3.788;2023-06-10T07:31:15;30.60;78.90
27226;DHT22;14732;51.074;3.788;2023-06-10T07:33:43;30.60;80.00
27226;DHT22;14732;51.074;3.788;2023-06-10T07:36:11;31.10;78.30
27226;DHT22;14732;51.074;3.788;2023-06-10T07:38:38;30.60;78.80
27226;DHT22;14732;51.074;3.788;2023-06-10T07:41:04;30.30;79.10
27226;DHT22;14732;51.074;3.788;2023-06-10T07:43:30;30.40;80.00
27226;DHT22;14732;51.074;3.788;2023-06-10T07:45:56;30.60;80.50
27226;DHT22;14732;51.074;3.788;2023-06-10T07:48:21;30.00;80.10
27226;DHT22;14732;51.074;3.788;2023-06-10T07:50:47;30.10;80.00
27226;DHT22;14732;51.074;3.788;2023-06-10T07:53:13;30.30;82.60
27226;DHT22;14732;51.074;3.788;2023-06-10T07:55:38;30.20;82.90
27226;DHT22;14732;51.074;3.788;2023-06-10T07:58:04;30.10;81.00
27226;DHT22;14732;51.074;3.788;2023-06-10T08:00:30;30.20;81.10
27226;DHT22;14732;51.074;3.788;2023-06-10T08:02:56;30.10;81.30
27226;DHT22;14732;51.074;3.788;2023-06-10T08:05:22;29.90;81.70
27226;DHT22;14732;51.074;3.788;2023-06-10T08:07:47;29.70;81.50
27226;DHT22;14732;51.074;3.788;2023-06-10T08:10:13;29.90;82.50
27226;DHT22;14732;51.074;3.788;2023-06-10T08:12:39;30.10;81.70
27226;DHT22;14732;51.074;3.788;2023-06-10T08:15:05;30.30;81.80
27226;DHT22;14732;51.074;3.788;2023-06-10T08:17:31;30.50;81.70
27226;DHT22;14732;51.074;3.788;2023-06-10T08:19:56;30.30;80.80
27226;DHT22;14732;51.074;3.788;2023-06-10T08:22:22;29.80;82.40
27226;DHT22;14732;51.074;3.788;2023-06-10T08:24:48;29.80;82.10
27226;DHT22;14732;51.074;3.788;2023-06-10T08:27:14;29.90;81.70
27226;DHT22;14732;51.074;3.788;2023-06-10T08:29:40;30.40;80.50
27226;DHT22;14732;51.074;3.788;2023-06-10T08:32:06;31.20;80.30
27226;DHT22;14732;51.074;3.788;2023-06-10T08:34:35;32.40;77.20
27226;DHT22;14732;51.074;3.788;2023-06-10T08:37:01;32.40;76.70
27226;DHT22;14732;51.074;3.788;2023-06-10T08:39:27;33.80;75.80
27226;DHT22;14732;51.074;3.788;2023-06-10T08:44:30;37.60;68.40
27226;DHT22;14732;51.074;3.788;2023-06-10T08:46:59;39.20;63.30
27226;DHT22;14732;51.074;3.788;2023-06-10T08:49:26;39.90;60.80
27226;DHT22;14732;51.074;3.788;2023-06-10T08:51:59;40.30;61.40
27226;DHT22;14732;51.074;3.788;2023-06-10T08:54:28;41.90;57.10
27226;DHT22;14732;51.074;3.788;2023-06-10T08:56:54;42.30;56.20
27226;DHT22;14732;51.074;3.788;2023-06-10T08:59:21;43.90;53.90
27226;DHT22;14732;51.074;3.788;2023-06-10T09:01:47;44.80;53.00
27226;DHT22;14732;51.074;3.788;2023-06-10T09:04:13;46.40;48.70
27226;DHT22;14732;51.074;3.788;2023-06-10T09:06:40;47.70;46.90
27226;DHT22;14732;51.074;3.788;2023-06-10T09:09:08;47.20;44.80
27226;DHT22;14732;51.074;3.788;2023-06-10T09:11:36;46.10;45.20
27226;DHT22;14732;51.074;3.788;2023-06-10T09:14:03;44.60;46.40
27226;DHT22;14732;51.074;3.788;2023-06-10T09:16:30;42.00;48.90
27226;DHT22;14732;51.074;3.788;2023-06-10T09:18:57;42.70;49.50
27226;DHT22;14732;51.074;3.788;2023-06-10T09:21:24;42.70;49.20
27226;DHT22;14732;51.074;3.788;2023-06-10T09:23:51;43.60;47.80
27226;DHT22;14732;51.074;3.788;2023-06-10T09:26:17;43.60;47.60
27226;DHT22;14732;51.074;3.788;2023-06-10T09:28:49;42.70;47.70
27226;DHT22;14732;51.074;3.788;2023-06-10T09:31:17;40.90;50.30
27226;DHT22;14732;51.074;3.788;2023-06-10T09:33:47;39.80;51.60
27226;DHT22;14732;51.074;3.788;2023-06-10T09:36:21;37.30;53.80
27226;DHT22;14732;51.074;3.788;2023-06-10T09:38:49;36.20;55.20
27226;DHT22;14732;51.074;3.788;2023-06-10T09:41:16;35.60;57.00
27226;DHT22;14732;51.074;3.788;2023-06-10T09:43:43;35.10;57.70
27226;DHT22;14732;51.074;3.788;2023-06-10T09:46:16;34.80;58.60
27226;DHT22;14732;51.074;3.788;2023-06-10T09:48:44;33.50;61.10
27226;DHT22;14732;51.074;3.788;2023-06-10T09:51:10;32.60;61.80
27226;DHT22;14732;51.074;3.788;2023-06-10T09:53:36;32.50;63.20
27226;DHT22;14732;51.074;3.788;2023-06-10T09:56:02;32.40;63.10
27226;DHT22;14732;51.074;3.788;2023-06-10T09:58:40;32.30;62.00
27226;DHT22;14732;51.074;3.788;2023-06-10T10:01:10;32.30;63.80
27226;DHT22;14732;51.074;3.788;2023-06-10T10:03:50;32.10;63.20
27226;DHT22;14732;51.074;3.788;2023-06-10T10:06:17;31.70;62.80
27226;DHT22;14732;51.074;3.788;2023-06-10T10:08:44;31.60;64.00
27226;DHT22;14732;51.074;3.788;2023-06-10T10:11:12;31.50;65.80
27226;DHT22;14732;51.074;3.788;2023-06-10T10:13:39;31.60;63.90
27226;DHT22;14732;51.074;3.788;2023-06-10T10:16:15;31.30;63.10
27226;DHT22;14732;51.074;3.788;2023-06-10T10:18:45;31.50;64.40
27226;DHT22;14732;51.074;3.788;2023-06-10T10:21:13;31.30;62.20
27226;DHT22;14732;51.074;3.788;2023-06-10T10:24:05;31.40;62.00
27226;DHT22;14732;51.074;3.788;2023-06-10T10:26:38;31.20;64.70
27226;DHT22;14732;51.074;3.788;2023-06-10T10:29:24;31.20;62.00
27226;DHT22;14732;51.074;3.788;2023-06-10T10:31:51;31.00;61.80
27226;DHT22;14732;51.074;3.788;2023-06-10T10:34:45;30.80;61.80
27226;DHT22;14732;51.074;3.788;2023-06-10T10:37:12;30.80;63.50
27226;DHT22;14732;51.074;3.788;2023-06-10T10:39:39;30.90;62.20
27226;DHT22;14732;51.074;3.788;2023-06-10T10:42:07;30.80;63.00
27226;DHT22;14732;51.074;3.788;2023-06-10T10:44:38;30.70;63.70
27226;DHT22;14732;51.074;3.788;2023-06-10T10:47:06;30.90;62.00
27226;DHT22;14732;51.074;3.788;2023-06-10T10:49:33;31.30;63.30
27226;DHT22;14732;51.074;3.788;2023-06-10T10:52:01;31.40;63.30
27226;DHT22;14732;51.074;3.788;2023-06-10T10:54:32;31.60;64.60
27226;DHT22;14732;51.074;3.788;2023-06-10T10:57:17;31.80;63.20
27226;DHT22;14732;51.074;3.788;2023-06-10T11:02:10;31.60;62.50
27226;DHT22;14732;51.074;3.788;2023-06-10T11:04:35;31.70;62.80
27226;DHT22;14732;51.074;3.788;2023-06-10T11:07:08;31.90;62.50
27226;DHT22;14732;51.074;3.788;2023-06-10T11:09:34;32.00;61.60
27226;DHT22;14732;51.074;3.788;2023-06-10T11:11:59;32.30;60.00
27226;DHT22;14732;51.074;3.788;2023-06-10T11:14:29;31.70;62.20
27226;DHT22;14732;51.074;3.788;2023-06-10T11:16:59;31.80;63.10
27226;DHT22;14732;51.074;3.788;2023-06-10T11:19:31;31.90;63.50
27226;DHT22;14732;51.074;3.788;2023-06-10T11:22:01;32.10;61.30
27226;DHT22;14732;51.074;3.788;2023-06-10T11:24:29;32.40;59.60
27226;DHT22;14732;51.074;3.788;2023-06-10T11:26:55;32.60;60.40
27226;DHT22;14732;51.074;3.788;2023-06-10T11:29:39;32.20;59.00
27226;DHT22;14732;51.074;3.788;2023-06-10T11:32:06;32.20;60.10
27226;DHT22;14732;51.074;3.788;2023-06-10T11:34:32;32.40;59.30
27226;DHT22;14732;51.074;3.788;2023-06-10T11:36:58;32.20;59.30
27226;DHT22;14732;51.074;3.788;2023-06-10T11:39:25;32.60;63.30
27226;DHT22;14732;51.074;3.788;2023-06-10T11:41:52;32.50;60.10
27226;DHT22;14732;51.074;3.788;2023-06-10T11:44:18;32.70;58.30
27226;DHT22;14732;51.074;3.788;2023-06-10T11:46:44;32.70;58.70
27226;DHT22;14732;51.074;3.788;2023-06-10T11:49:11;32.90;60.20
27226;DHT22;14732;51.074;3.788;2023-06-10T11:51:40;33.00;58.80
27226;DHT22;14732;51.074;3.788;2023-06-10T11:54:09;33.00;58.90
27226;DHT22;14732;51.074;3.788;2023-06-10T11:56:35;33.10;57.30
27226;DHT22;14732;51.074;3.788;2023-06-10T11:59:03;32.50;58.90
27226;DHT22;14732;51.074;3.788;2023-06-10T12:01:37;32.70;59.90
27226;DHT22;14732;51.074;3.788;2023-06-10T12:04:15;32.60;60.30
27226;DHT22;14732;51.074;3.788;2023-06-10T12:06:52;32.20;57.90
27226;DHT22;14732;51.074;3.788;2023-06-10T12:14:55;32.30;58.40
27226;DHT22;14732;51.074;3.788;2023-06-10T12:17:36;32.50;59.20
27226;DHT22;14732;51.074;3.788;2023-06-10T12:20:07;32.70;57.20
27226;DHT22;14732;51.074;3.788;2023-06-10T12:22:41;32.60;56.00
27226;DHT22;14732;51.074;3.788;2023-06-10T12:25:07;32.60;57.10
27226;DHT22;14732;51.074;3.788;2023-06-10T12:27:34;32.90;57.20
27226;DHT22;14732;51.074;3.788;2023-06-10T12:30:01;32.90;57.00
27226;DHT22;14732;51.074;3.788;2023-06-10T12:32:39;32.70;55.10
27226;DHT22;14732;51.074;3.788;2023-06-10T12:35:06;32.60;55.70
27226;DHT22;14732;51.074;3.788;2023-06-10T12:37:32;32.90;55.70
27226;DHT22;14732;51.074;3.788;2023-06-10T12:40:03;32.60;55.30
27226;DHT22;14732;51.074;3.788;2023-06-10T12:42:30;32.40;55.50
27226;DHT22;14732;51.074;3.788;2023-06-10T12:44:56;32.10;54.80
27226;DHT22;14732;51.074;3.788;2023-06-10T12:47:32;32.20;55.80
27226;DHT22;14732;51.074;3.788;2023-06-10T12:49:59;32.00;56.00
27226;DHT22;14732;51.074;3.788;2023-06-10T12:52:25;32.10;56.40
27226;DHT22;14732;51.074;3.788;2023-06-10T12:54:51;32.20;55.40
27226;DHT22;14732;51.074;3.788;2023-06-10T12:57:17;32.40;56.50
27226;DHT22;14732;51.074;3.788;2023-06-10T12:59:43;32.20;56.90
27226;DHT22;14732;51.074;3.788;2023-06-10T13:02:15;32.10;55.20
27226;DHT22;14732;51.074;3.788;2023-06-10T13:04:43;31.90;56.10
27226;DHT22;14732;51.074;3.788;2023-06-10T13:07:09;31.80;55.30
27226;DHT22;14732;51.074;3.788;2023-06-10T13:09:36;32.10;56.90
27226;DHT22;14732;51.074;3.788;2023-06-10T13:12:02;32.30;55.80
27226;DHT22;14732;51.074;3.788;2023-06-10T13:14:28;32.70;57.10
27226;DHT22;14732;51.074;3.788;2023-06-10T13:16:54;33.00;56.10
27226;DHT22;14732;51.074;3.788;2023-06-10T13:19:20;32.90;54.20
27226;DHT22;14732;51.074;3.788;2023-06-10T13:21:49;32.80;54.90
27226;DHT22;14732;51.074;3.788;2023-06-10T13:24:15;32.70;55.60
27226;DHT22;14732;51.074;3.788;2023-06-10T13:26:40;33.10;54.50
27226;DHT22;14732;51.074;3.788;2023-06-10T13:29:06;33.40;53.20
27226;DHT22;14732;51.074;3.788;2023-06-10T13:31:33;33.20;53.00
27226;DHT22;14732;51.074;3.788;2023-06-10T13:33:59;33.30;53.70
27226;DHT22;14732;51.074;3.788;2023-06-10T13:36:25;33.40;55.00
27226;DHT22;14732;51.074;3.788;2023-06-10T13:38:51;33.70;54.70
27226;DHT22;14732;51.074;3.788;2023-06-10T13:41:20;33.80;57.40
27226;DHT22;14732;51.074;3.788;2023-06-10T13:43:46;33.70;56.50
27226;DHT22;14732;51.074;3.788;2023-06-10T13:46:12;33.60;57.20
27226;DHT22;14732;51.074;3.788;2023-06-10T13:48:38;33.60;54.90
27226;DHT22;14732;51.074;3.788;2023-06-10T13:51:04;33.50;56.50
27226;DHT22;14732;51.074;3.788;2023-06-10T13:53:29;33.30;56.70
27226;DHT22;14732;51.074;3.788;2023-06-10T13:55:55;33.50;55.70
27226;DHT22;14732;51.074;3.788;2023-06-10T13:58:21;33.50;55.10
27226;DHT22;14732;51.074;3.788;2023-06-10T14:00:46;33.70;55.20
27226;DHT22;14732;51.074;3.788;2023-06-10T14:03:16;34.00;54.80
27226;DHT22;14732;51.074;3.788;2023-06-10T14:05:43;33.50;55.00
27226;DHT22;14732;51.074;3.788;2023-06-10T14:08:09;33.30;53.90
27226;DHT22;14732;51.074;3.788;2023-06-10T14:10:36;33.00;54.90
27226;DHT22;14732;51.074;3.788;2023-06-10T14:13:02;32.80;55.10
27226;DHT22;14732;51.074;3.788;2023-06-10T14:15:36;32.70;56.20
27226;DHT22;14732;51.074;3.788;2023-06-10T14:18:03;32.70;55.40
27226;DHT22;14732;51.074;3.788;2023-06-10T14:20:31;32.70;55.60
27226;DHT22;14732;51.074;3.788;2023-06-10T14:22:58;32.70;55.90
27226;DHT22;14732;51.074;3.788;2023-06-10T14:25:25;32.90;56.20
27226;DHT22;14732;51.074;3.788;2023-06-10T14:27:50;33.00;56.10
27226;DHT22;14732;51.074;3.788;2023-06-10T14:30:17;33.10;54.20
27226;DHT22;14732;51.074;3.788;2023-06-10T14:32:43;32.80;55.00
27226;DHT22;14732;51.074;3.788;2023-06-10T14:35:09;32.80;54.60
27226;DHT22;14732;51.074;3.788;2023-06-10T14:37:37;32.80;55.20
27226;DHT22;14732;51.074;3.788;2023-06-10T14:40:07;33.10;55.30
27226;DHT22;14732;51.074;3.788;2023-06-10T14:42:33;33.00;55.20
27226;DHT22;14732;51.074;3.788;2023-06-10T14:45:00;33.10;56.50
27226;DHT22;14732;51.074;3.788;2023-06-10T14:47:27;33.30;54.50
27226;DHT22;14732;51.074;3.788;2023-06-10T14:49:53;33.10;55.20
27226;DHT22;14732;51.074;3.788;2023-06-10T14:52:19;33.00;54.10
27226;DHT22;14732;51.074;3.788;2023-06-10T14:54:45;32.70;55.20
27226;DHT22;14732;51.074;3.788;2023-06-10T14:57:12;32.90;55.30
27226;DHT22;14732;51.074;3.788;2023-06-10T14:59:38;32.50;55.70
27226;DHT22;14732;51.074;3.788;2023-06-10T15:02:03;32.50;55.00
27226;DHT22;14732;51.074;3.788;2023-06-10T15:04:29;32.50;54.70
27226;DHT22;14732;51.074;3.788;2023-06-10T15:06:56;32.40;56.20
27226;DHT22;14732;51.074;3.788;2023-06-10T15:09:24;32.60;54.90
27226;DHT22;14732;51.074;3.788;2023-06-10T15:11:49;32.60;55.00
27226;DHT22;14732;51.074;3.788;2023-06-10T15:14:15;32.60;56.00
27226;DHT22;14732;51.074;3.788;2023-06-10T15:16:41;32.60;55.00
27226;DHT22;14732;51.074;3.788;2023-06-10T15:19:07;32.60;54.90
27226;DHT22;14732;51.074;3.788;2023-06-10T15:21:35;32.70;55.30
27226;DHT22;14732;51.074;3.788;2023-06-10T15:24:03;33.00;55.00
27226;DHT22;14732;51.074;3.788;2023-06-10T15:26:30;33.00;54.30
27226;DHT22;14732;51.074;3.788;2023-06-10T15:28:56;33.00;54.70
27226;DHT22;14732;51.074;3.788;2023-06-10T15:31:22;33.30;55.60
27226;DHT22;14732;51.074;3.788;2023-06-10T15:33:47;33.20;55.20
27226;DHT22;14732;51.074;3.788;2023-06-10T15:36:13;32.70;54.20
27226;DHT22;14732;51.074;3.788;2023-06-10T15:38:41;32.50;56.10
27226;DHT22;14732;51.074;3.788;2023-06-10T15:41:08;32.70;57.10
27226;DHT22;14732;51.074;3.788;2023-06-10T15:43:35;32.60;54.80